createdAt,value
2024-04-30T00:02:42.339Z,1.40
2024-04-30T00:07:47.755Z,1.55
2024-04-30T00:12:55.717Z,1.75
2024-04-30T00:18:00.997Z,1.70
2024-04-30T00:23:06.394Z,1.67
2024-04-30T00:28:16.160Z,2.30
2024-04-30T00:33:21.314Z,1.48
2024-04-30T00:38:26.490Z,1.70
2024-04-30T00:43:34.352Z,1.92
2024-04-30T00:48:41.765Z,1.80
2024-04-30T00:53:47.014Z,1.75
2024-04-30T00:58:54.758Z,1.67
2024-04-30T01:03:59.926Z,1.80
2024-04-30T01:09:05.128Z,1.25
2024-04-30T01:14:12.874Z,2.03
2024-04-30T01:19:18.078Z,2.00
2024-04-30T01:24:25.800Z,1.65
2024-04-30T01:29:30.999Z,2.10
2024-04-30T01:34:38.855Z,1.73
2024-04-30T01:39:46.766Z,2.13
2024-04-30T01:44:51.956Z,1.40
2024-04-30T01:49:57.294Z,1.75
2024-04-30T01:55:05.247Z,1.83
2024-04-30T02:00:11.344Z,1.70
2024-04-30T02:05:21.076Z,2.03
2024-04-30T02:10:32.930Z,2.00
2024-04-30T02:15:38.187Z,1.98
2024-04-30T02:20:43.497Z,1.80
2024-04-30T02:25:51.307Z,1.80
2024-04-30T02:31:12.760Z,1.80
2024-04-30T02:36:17.937Z,1.70
2024-04-30T02:41:25.797Z,1.77
2024-04-30T02:46:31.027Z,2.17
2024-04-30T02:51:36.374Z,2.28
2024-04-30T02:56:44.139Z,1.98
2024-04-30T03:01:49.351Z,2.00
2024-04-30T03:06:54.548Z,2.30
2024-04-30T03:12:02.382Z,2.58
2024-04-30T03:17:07.999Z,2.17
2024-04-30T03:22:13.268Z,1.70
2024-04-30T03:27:21.061Z,2.05
2024-04-30T03:32:26.323Z,1.90
2024-04-30T03:37:31.653Z,2.10
2024-04-30T03:42:39.707Z,1.90
2024-04-30T03:47:45.524Z,2.40
2024-04-30T03:52:50.717Z,1.92
2024-04-30T03:57:58.496Z,1.90
2024-04-30T04:03:03.730Z,2.47
2024-04-30T04:08:11.094Z,2.28
2024-04-30T04:13:34.744Z,1.85
2024-04-30T04:18:39.975Z,2.20
2024-04-30T04:23:45.377Z,2.08
2024-04-30T04:28:53.145Z,2.58
2024-04-30T04:33:58.418Z,1.92
2024-04-30T04:39:03.728Z,2.28
2024-04-30T04:44:11.599Z,2.38
2024-04-30T04:49:16.851Z,2.70
2024-04-30T04:54:22.075Z,2.15
2024-04-30T04:59:29.901Z,2.70
2024-04-30T05:04:35.025Z,2.20
2024-04-30T05:09:40.173Z,2.22
2024-04-30T05:14:48.651Z,1.77
2024-04-30T05:19:54.624Z,2.23
2024-04-30T05:24:59.758Z,2.47
2024-04-30T05:30:08.232Z,2.70
2024-04-30T05:35:14.209Z,2.72
2024-04-30T05:40:19.423Z,2.03
2024-04-30T05:45:27.258Z,2.63
2024-04-30T05:50:32.495Z,2.30
2024-04-30T05:55:37.894Z,2.33
2024-04-30T06:00:45.924Z,2.25
2024-04-30T06:05:51.095Z,2.90
2024-04-30T06:10:56.307Z,2.25
2024-04-30T06:16:04.357Z,2.20
2024-04-30T06:21:12.043Z,2.58
2024-04-30T06:26:17.515Z,2.85
2024-04-30T06:31:25.399Z,3.25
2024-04-30T06:36:30.780Z,2.58
2024-04-30T06:41:35.974Z,2.50
2024-04-30T06:46:43.822Z,2.17
2024-04-30T06:51:49.043Z,2.95
2024-04-30T06:56:54.214Z,3.00
2024-04-30T07:02:02.138Z,2.35
2024-04-30T07:07:07.759Z,2.83
2024-04-30T07:12:12.993Z,2.40
2024-04-30T07:17:22.398Z,2.67
2024-04-30T07:22:27.663Z,2.50
2024-04-30T07:27:32.880Z,2.92
2024-04-30T07:32:41.270Z,2.60
2024-04-30T07:37:46.929Z,2.50
2024-04-30T07:42:52.190Z,2.78
2024-04-30T07:48:01.528Z,2.13
2024-04-30T07:53:07.071Z,1.87
2024-04-30T07:58:37.590Z,2.05
2024-04-30T08:03:45.554Z,2.22
2024-04-30T08:08:50.955Z,2.22
2024-04-30T08:13:56.224Z,1.85
2024-04-30T08:19:04.218Z,2.05
2024-04-30T08:24:11.405Z,2.13
2024-04-30T08:29:16.789Z,1.90
2024-04-30T08:34:25.354Z,2.45
2024-04-30T08:39:30.608Z,1.90
2024-04-30T08:44:37.106Z,2.25
2024-04-30T08:49:49.161Z,2.10
2024-04-30T08:54:59.438Z,1.95
2024-04-30T09:00:04.687Z,1.52
2024-04-30T09:05:13.831Z,1.83
2024-04-30T09:10:19.128Z,1.77
2024-04-30T09:15:24.669Z,1.45
2024-04-30T09:20:32.493Z,2.08
2024-04-30T09:25:39.455Z,1.85
2024-04-30T09:30:45.450Z,1.48
2024-04-30T09:36:06.050Z,1.55
2024-04-30T09:41:14.552Z,1.40
2024-04-30T09:46:20.003Z,1.50
2024-04-30T09:51:32.325Z,1.58
2024-04-30T09:56:37.553Z,1.80
2024-04-30T10:01:43.775Z,1.45
2024-04-30T10:06:52.966Z,1.55
2024-04-30T10:11:58.526Z,1.60
2024-04-30T10:17:05.752Z,1.50
2024-04-30T10:22:18.781Z,1.60
2024-04-30T10:27:25.686Z,1.70
2024-04-30T10:32:31.716Z,1.48
2024-04-30T10:37:39.877Z,2.00
2024-04-30T10:42:52.264Z,1.58
2024-04-30T10:47:57.644Z,1.40
2024-04-30T10:53:06.410Z,1.60
2024-04-30T10:58:17.673Z,1.85
2024-04-30T11:03:25.145Z,1.30
2024-04-30T11:08:35.561Z,1.58
2024-04-30T11:13:41.163Z,1.30
2024-04-30T11:18:46.642Z,1.63
2024-04-30T11:23:55.098Z,2.10
2024-04-30T11:29:15.694Z,1.42
2024-04-30T11:34:26.911Z,1.80
2024-04-30T11:39:34.780Z,1.85
2024-04-30T11:44:39.932Z,1.65
2024-04-30T11:49:45.407Z,1.30
2024-04-30T11:54:53.221Z,2.03
2024-04-30T11:59:58.342Z,1.83
2024-04-30T12:05:04.449Z,1.67
2024-04-30T12:10:12.448Z,1.35
2024-04-30T12:15:17.881Z,1.95
2024-04-30T12:20:23.058Z,1.70
2024-04-30T12:25:30.965Z,1.75
2024-04-30T12:30:36.117Z,2.30
2024-04-30T12:35:41.614Z,2.70
2024-04-30T12:40:49.484Z,2.53
2024-04-30T12:45:54.705Z,2.05
2024-04-30T12:51:00.873Z,1.70
2024-04-30T12:56:08.889Z,1.95
2024-04-30T13:01:20.083Z,2.15
2024-04-30T13:06:26.907Z,2.00
2024-04-30T13:11:34.888Z,2.20
2024-04-30T13:16:43.307Z,2.45
2024-04-30T13:21:50.553Z,1.98
2024-04-30T13:26:58.322Z,2.17
2024-04-30T13:32:03.511Z,2.42
2024-04-30T13:37:09.148Z,2.13
2024-04-30T13:42:17.108Z,1.90
2024-04-30T13:47:22.336Z,1.70
2024-04-30T13:52:27.554Z,1.55
2024-04-30T13:57:35.422Z,2.15
2024-04-30T14:02:41.503Z,2.78
2024-04-30T14:07:48.188Z,1.88
2024-04-30T14:12:56.058Z,2.03
2024-04-30T14:18:02.485Z,1.77
2024-04-30T14:23:07.802Z,2.30
2024-04-30T14:28:18.484Z,2.08
2024-04-30T14:33:23.892Z,1.92
2024-04-30T14:38:29.088Z,2.13
2024-04-30T14:43:37.643Z,2.80
2024-04-30T14:48:43.316Z,2.43
2024-04-30T14:53:48.668Z,2.53
2024-04-30T14:58:58.663Z,2.08
2024-04-30T15:04:03.932Z,1.90
2024-04-30T15:09:11.407Z,1.90
2024-04-30T15:14:19.396Z,2.33
2024-04-30T15:19:24.576Z,1.90
2024-04-30T15:24:29.947Z,2.15
2024-04-30T15:29:37.712Z,2.60
2024-04-30T15:34:43.502Z,1.92
2024-04-30T15:39:48.954Z,1.75
2024-04-30T15:44:56.712Z,2.75
2024-04-30T15:50:01.993Z,2.35
2024-04-30T15:55:07.992Z,1.88
2024-04-30T16:00:16.700Z,1.75
2024-04-30T16:05:23.063Z,2.30
2024-04-30T16:10:28.283Z,2.42
2024-04-30T16:15:36.157Z,2.10
2024-04-30T16:20:42.238Z,2.60
2024-04-30T16:25:47.484Z,2.85
2024-04-30T16:30:55.359Z,2.90
2024-04-30T16:36:01.726Z,2.28
2024-04-30T16:41:07.574Z,2.67
2024-04-30T16:46:15.554Z,2.75
2024-04-30T16:51:20.993Z,2.58
2024-04-30T16:56:27.090Z,2.20
2024-04-30T17:01:35.045Z,1.90
2024-04-30T17:06:47.571Z,2.50
2024-04-30T17:11:52.744Z,1.80
2024-04-30T17:17:00.614Z,2.45
2024-04-30T17:22:06.149Z,2.88
2024-04-30T17:27:11.510Z,2.38
2024-04-30T17:32:19.320Z,2.17
2024-04-30T17:37:24.471Z,2.20
2024-04-30T17:42:29.744Z,2.03
2024-04-30T17:47:37.578Z,2.80
2024-04-30T17:52:42.760Z,3.22
2024-04-30T17:57:47.931Z,2.30
2024-04-30T18:02:56.203Z,2.63
2024-04-30T18:08:17.157Z,2.38
2024-04-30T18:13:22.575Z,2.63
2024-04-30T18:18:30.463Z,2.67
2024-04-30T18:23:35.816Z,2.47
2024-04-30T18:28:46.013Z,2.80
2024-04-30T18:33:55.618Z,2.42
2024-04-30T18:44:06.950Z,2.47
2024-04-30T18:49:16.044Z,2.28
2024-04-30T18:54:22.656Z,2.50
2024-04-30T18:59:28.000Z,2.65
2024-04-30T19:04:41.024Z,2.65
2024-04-30T19:09:48.489Z,2.28
2024-04-30T19:14:54.010Z,2.47
2024-04-30T19:20:01.847Z,2.85
2024-04-30T19:25:08.411Z,3.35
2024-04-30T19:30:14.589Z,3.65
2024-04-30T19:35:22.428Z,3.85
2024-04-30T19:40:27.720Z,3.05
2024-04-30T19:45:32.987Z,3.45
2024-04-30T19:50:40.799Z,3.38
2024-04-30T19:55:46.099Z,3.65
2024-04-30T20:00:51.440Z,3.88
2024-04-30T20:05:59.339Z,3.72
2024-04-30T20:11:04.538Z,3.47
2024-04-30T20:16:10.189Z,3.78
2024-04-30T20:21:18.615Z,3.15
2024-04-30T20:26:24.077Z,3.63
2024-04-30T20:31:29.289Z,4.10
2024-04-30T20:43:22.070Z,3.55
2024-04-30T20:48:27.480Z,3.65
2024-04-30T20:53:32.942Z,3.65
2024-04-30T20:58:43.647Z,4.03
2024-04-30T21:03:52.986Z,4.40
2024-04-30T21:08:58.433Z,3.38
2024-04-30T21:14:06.317Z,3.90
2024-04-30T21:19:11.816Z,4.03
2024-04-30T21:24:17.330Z,3.47
2024-04-30T21:29:25.714Z,3.85
2024-04-30T21:34:31.426Z,4.18
2024-04-30T21:39:36.813Z,3.75
2024-04-30T21:44:44.869Z,5.03
2024-04-30T21:49:50.294Z,3.95
2024-04-30T21:54:55.696Z,4.05
2024-04-30T22:00:03.695Z,4.28
2024-04-30T22:05:11.192Z,3.85
2024-04-30T22:10:16.574Z,4.85
2024-04-30T22:15:24.422Z,3.92
2024-04-30T22:20:30.849Z,4.82
2024-04-30T22:25:36.100Z,4.75
2024-04-30T22:30:43.912Z,4.65
2024-04-30T22:35:49.131Z,4.38
2024-04-30T22:40:56.110Z,4.85
2024-04-30T22:46:04.916Z,5.50
2024-04-30T22:51:10.358Z,5.07
2024-04-30T22:56:15.554Z,5.55
2024-04-30T23:01:23.461Z,4.13
2024-04-30T23:06:28.716Z,4.00
2024-04-30T23:11:33.909Z,4.50
2024-04-30T23:16:41.712Z,5.00
2024-04-30T23:21:47.582Z,4.50
2024-04-30T23:26:52.745Z,4.13
2024-04-30T23:32:00.619Z,4.97
2024-04-30T23:37:08.051Z,4.28
2024-04-30T23:42:21.005Z,4.95
2024-04-30T23:47:31.283Z,4.30
2024-04-30T23:52:36.413Z,4.22
2024-04-30T23:57:41.778Z,4.25
